Time;durP1;ratioP1;P1;durP2;ratioP2;P2;SDS_P1;SDS_P2;PMS_P1;PMS_P2;Temp;Humidity;BMP_temperature;BMP_pressure;BME280_temperature;BME280_humidity;BME280_pressure;Samples;Min_cycle;Max_cycle;Signal;HPM_P1;HPM_P2
2021/03/06 00:00:17;;;;;;;;;;;-1.10;99.90;;;;;;5089437;28;20009;-75
2021/03/06 00:02:43;;;;;;;;;;;-1.10;99.90;;;;;;5091057;28;19954;-75
2021/03/06 00:05:09;;;;;;;;;;;-1.10;99.90;;;;;;5087778;28;19916;-75
2021/03/06 00:07:35;;;;;;;;;;;-1.20;99.90;;;;;;5090544;28;20027;-74
2021/03/06 00:10:01;;;;;;;;;;;-1.20;99.90;;;;;;5089889;28;20258;-75
2021/03/06 00:12:26;;;;;;;;;;;-1.20;99.90;;;;;;5082794;28;19913;-75
2021/03/06 00:14:52;;;;;;;;;;;-1.20;99.90;;;;;;5079660;28;19908;-75
2021/03/06 00:17:17;;;;;;;;;;;-1.20;99.90;;;;;;5087238;28;19908;-75
2021/03/06 00:19:43;;;;;;;;;;;-1.20;99.90;;;;;;5086525;28;19909;-75
2021/03/06 00:22:09;;;;;;;;;;;-1.20;99.90;;;;;;5087057;28;20019;-74
2021/03/06 00:24:35;;;;;;;;;;;-1.30;99.90;;;;;;5087517;28;20019;-74
2021/03/06 00:27:00;;;;;;;;;;;-1.30;99.90;;;;;;5089553;28;19954;-74
2021/03/06 00:29:26;;;;;;;;;;;-1.30;99.90;;;;;;5090892;28;19931;-75
2021/03/06 00:31:51;;;;;;;;;;;-1.40;99.90;;;;;;5090658;28;19908;-74
2021/03/06 00:34:17;;;;;;;;;;;-1.40;99.90;;;;;;5090735;28;19912;-75
2021/03/06 00:36:42;;;;;;;;;;;-1.40;99.90;;;;;;5090266;28;19912;-74
2021/03/06 00:39:08;;;;;;;;;;;-1.40;99.90;;;;;;5090714;28;19991;-75
2021/03/06 00:41:33;;;;;;;;;;;-1.50;99.90;;;;;;5090865;28;19916;-74
2021/03/06 00:43:59;;;;;;;;;;;-1.50;99.90;;;;;;5090765;28;19935;-75
2021/03/06 00:46:24;;;;;;;;;;;-1.50;99.90;;;;;;5090393;28;19923;-74
2021/03/06 00:48:50;;;;;;;;;;;-1.50;99.90;;;;;;5090626;28;19909;-75
2021/03/06 00:51:16;;;;;;;;;;;-1.50;99.90;;;;;;5090026;28;20367;-75
2021/03/06 00:53:41;;;;;;;;;;;-1.60;99.90;;;;;;5090314;28;19909;-74
2021/03/06 00:56:07;;;;;;;;;;;-1.50;99.90;;;;;;5090228;28;19955;-74
2021/03/06 00:58:32;;;;;;;;;;;-1.50;99.90;;;;;;5090629;28;19954;-75
2021/03/06 01:00:58;;;;;;;;;;;-1.50;99.90;;;;;;5093760;28;20322;-74
2021/03/06 01:03:24;;;;;;;;;;;-1.60;99.90;;;;;;5094176;28;19908;-74
2021/03/06 01:05:49;;;;;;;;;;;-1.60;99.90;;;;;;5093459;28;19912;-74
2021/03/06 01:08:15;;;;;;;;;;;-1.50;99.90;;;;;;5094072;28;20011;-75
2021/03/06 01:10:42;;;;;;;;;;;-1.60;99.90;;;;;;5094027;28;19952;-75
2021/03/06 01:13:08;;;;;;;;;;;-1.60;99.90;;;;;;5094165;28;19915;-75
2021/03/06 01:15:33;;;;;;;;;;;-1.60;99.90;;;;;;5093822;28;20010;-75
2021/03/06 01:17:59;;;;;;;;;;;-1.60;99.90;;;;;;5093522;28;20376;-74
2021/03/06 01:20:25;;;;;;;;;;;-1.70;99.90;;;;;;5093180;28;19977;-75
2021/03/06 01:22:50;;;;;;;;;;;-1.70;99.90;;;;;;5093489;28;20313;-74
2021/03/06 01:25:16;;;;;;;;;;;-1.60;99.90;;;;;;5092466;28;20475;-75
2021/03/06 01:27:41;;;;;;;;;;;-1.70;99.90;;;;;;5093570;28;20331;-74
2021/03/06 01:30:07;;;;;;;;;;;-1.70;99.90;;;;;;5092303;28;19908;-75
2021/03/06 01:32:33;;;;;;;;;;;-1.70;99.90;;;;;;5093734;28;20366;-74
2021/03/06 01:34:58;;;;;;;;;;;-1.70;99.90;;;;;;5092056;28;20228;-75
2021/03/06 01:37:24;;;;;;;;;;;-1.70;99.90;;;;;;5093147;28;19908;-74
2021/03/06 01:39:49;;;;;;;;;;;-1.80;99.90;;;;;;5093396;28;20280;-74
2021/03/06 01:42:16;;;;;;;;;;;-1.90;99.90;;;;;;5083295;28;19982;-75
2021/03/06 01:44:41;;;;;;;;;;;-2.00;99.90;;;;;;5084836;28;20006;-74
2021/03/06 01:47:07;;;;;;;;;;;-2.00;99.90;;;;;;5092727;28;19995;-74
2021/03/06 01:49:32;;;;;;;;;;;-2.00;99.90;;;;;;5091768;28;19908;-74
2021/03/06 01:51:58;;;;;;;;;;;-2.10;99.90;;;;;;5091556;28;19912;-74
2021/03/06 01:54:25;;;;;;;;;;;-2.10;99.90;;;;;;5091785;28;19908;-74
2021/03/06 01:56:54;;;;;;;;;;;-2.20;99.90;;;;;;5091457;28;20002;-74
2021/03/06 01:59:19;;;;;;;;;;;-2.20;99.90;;;;;;5093020;28;19908;-74
2021/03/06 02:01:45;;;;;;;;;;;-2.20;99.90;;;;;;5092962;28;19919;-74
2021/03/06 02:04:12;;;;;;;;;;;-2.10;99.90;;;;;;5092710;28;19914;-74
2021/03/06 02:06:37;;;;;;;;;;;-2.10;99.90;;;;;;5092514;28;19919;-74
2021/03/06 02:09:03;;;;;;;;;;;-2.10;99.90;;;;;;5091695;28;19908;-74
2021/03/06 02:11:42;;;;;;;;;;;-2.10;99.90;;;;;;5092817;28;20326;-74
2021/03/06 02:14:16;;;;;;;;;;;-2.10;99.90;;;;;;5084128;28;19912;-74
2021/03/06 02:17:01;;;;;;;;;;;-2.10;99.90;;;;;;5084077;28;19954;-74
2021/03/06 02:19:39;;;;;;;;;;;-2.10;99.90;;;;;;5091580;28;19908;-74
2021/03/06 02:22:07;;;;;;;;;;;-2.10;99.90;;;;;;5091937;28;19912;-74
2021/03/06 02:24:44;;;;;;;;;;;-2.10;99.90;;;;;;5092418;28;20373;-74
2021/03/06 02:27:28;;;;;;;;;;;-2.10;99.90;;;;;;5090748;28;20327;-74
2021/03/06 02:29:56;;;;;;;;;;;-2.10;99.90;;;;;;5092520;28;19974;-74
2021/03/06 02:32:23;;;;;;;;;;;-2.20;99.90;;;;;;5092485;28;20045;-74
2021/03/06 02:35:00;;;;;;;;;;;-2.20;99.90;;;;;;5092277;28;19923;-74
2021/03/06 02:37:26;;;;;;;;;;;-2.30;99.90;;;;;;5092335;28;19912;-74
2021/03/06 02:39:54;;;;;;;;;;;-2.30;99.90;;;;;;5091071;28;19915;-74
2021/03/06 02:42:22;;;;;;;;;;;-2.30;99.90;;;;;;5092225;28;20434;-74
2021/03/06 02:44:48;;;;;;;;;;;-2.30;99.90;;;;;;5092338;28;19908;-74
2021/03/06 02:47:14;;;;;;;;;;;-2.30;99.90;;;;;;5091639;28;19912;-74
2021/03/06 02:49:43;;;;;;;;;;;-2.30;99.90;;;;;;5090725;28;19916;-74
2021/03/06 02:52:08;;;;;;;;;;;-2.40;99.90;;;;;;5090100;28;19963;-74
2021/03/06 02:54:33;;;;;;;;;;;-2.40;99.90;;;;;;5092265;28;19947;-74
2021/03/06 02:56:59;;;;;;;;;;;-2.40;99.90;;;;;;5091544;28;19908;-74
2021/03/06 02:59:45;;;;;;;;;;;-2.40;99.90;;;;;;5092213;28;20352;-74
2021/03/06 03:02:13;;;;;;;;;;;-2.50;99.90;;;;;;5091918;28;20337;-74
2021/03/06 03:04:45;;;;;;;;;;;-2.50;99.90;;;;;;5090354;28;19912;-74
2021/03/06 03:07:33;;;;;;;;;;;-2.70;99.90;;;;;;5091300;28;19920;-74
2021/03/06 03:10:01;;;;;;;;;;;-2.70;99.90;;;;;;5088417;28;19908;-74
2021/03/06 03:12:30;;;;;;;;;;;-2.80;99.90;;;;;;5090331;28;19908;-74
2021/03/06 03:15:04;;;;;;;;;;;-2.90;99.90;;;;;;5091530;28;19953;-74
2021/03/06 03:17:36;;;;;;;;;;;-3.00;99.90;;;;;;5076684;28;19959;-74
2021/03/06 03:20:08;;;;;;;;;;;-3.10;99.90;;;;;;5089121;28;20281;-74
2021/03/06 03:22:36;;;;;;;;;;;-3.20;99.90;;;;;;5090543;28;20174;-74
2021/03/06 03:25:04;;;;;;;;;;;-3.30;99.90;;;;;;5091343;28;19908;-74
2021/03/06 03:27:30;;;;;;;;;;;-3.40;99.90;;;;;;5090755;28;20420;-74
2021/03/06 03:29:56;;;;;;;;;;;-3.40;99.90;;;;;;5091429;28;19944;-74
2021/03/06 03:32:23;;;;;;;;;;;-3.40;99.90;;;;;;5091390;28;19908;-74
2021/03/06 03:34:49;;;;;;;;;;;-3.40;99.90;;;;;;5091190;28;20369;-74
2021/03/06 03:37:15;;;;;;;;;;;-3.40;99.90;;;;;;5090893;28;19958;-74
2021/03/06 03:39:40;;;;;;;;;;;-3.40;99.90;;;;;;5091273;28;19908;-74
2021/03/06 03:42:06;;;;;;;;;;;-3.40;99.90;;;;;;5083692;28;19966;-74
2021/03/06 03:44:35;;;;;;;;;;;-3.40;99.90;;;;;;5083173;28;19915;-74
2021/03/06 03:47:02;;;;;;;;;;;-3.40;99.90;;;;;;5090747;28;19912;-74
2021/03/06 03:49:27;;;;;;;;;;;-3.40;99.90;;;;;;5091101;28;19912;-74
2021/03/06 03:51:53;;;;;;;;;;;-3.40;99.90;;;;;;5090519;28;19915;-73
2021/03/06 03:54:18;;;;;;;;;;;-3.40;99.90;;;;;;5089634;28;19914;-74
2021/03/06 03:56:44;;;;;;;;;;;-3.50;99.90;;;;;;5090759;28;20455;-74
2021/03/06 03:59:09;;;;;;;;;;;-3.50;99.90;;;;;;5090893;28;19951;-74
2021/03/06 04:01:42;;;;;;;;;;;-3.50;99.90;;;;;;5089597;28;19956;-74
2021/03/06 04:04:07;;;;;;;;;;;-3.50;99.90;;;;;;5090735;28;19908;-73
2021/03/06 04:06:34;;;;;;;;;;;-3.50;99.90;;;;;;5090456;28;19990;-74
2021/03/06 04:08:59;;;;;;;;;;;-3.50;99.90;;;;;;5090619;28;19908;-74
2021/03/06 04:11:25;;;;;;;;;;;-3.50;99.90;;;;;;5090615;28;20018;-74
2021/03/06 04:13:50;;;;;;;;;;;-3.60;99.90;;;;;;5083870;28;19913;-74
2021/03/06 04:16:15;;;;;;;;;;;-3.60;99.90;;;;;;5086698;28;20403;-74
2021/03/06 04:18:41;;;;;;;;;;;-3.80;99.90;;;;;;5090557;28;19934;-73
2021/03/06 04:21:06;;;;;;;;;;;-3.80;99.90;;;;;;5089056;28;20369;-74
2021/03/06 04:23:32;;;;;;;;;;;-3.80;99.90;;;;;;5090573;28;19948;-74
2021/03/06 04:25:57;;;;;;;;;;;-3.90;99.90;;;;;;5090199;28;20006;-73
2021/03/06 04:28:23;;;;;;;;;;;-3.90;99.90;;;;;;5090675;28;19912;-73
2021/03/06 04:30:48;;;;;;;;;;;-3.90;99.90;;;;;;5090731;28;20586;-73
2021/03/06 04:33:14;;;;;;;;;;;-3.90;99.90;;;;;;5090864;28;19915;-74
2021/03/06 04:35:39;;;;;;;;;;;-4.00;99.90;;;;;;5093163;28;20041;-73
2021/03/06 04:38:04;;;;;;;;;;;-4.00;99.90;;;;;;5094434;28;19912;-73
2021/03/06 04:40:30;;;;;;;;;;;-4.00;99.90;;;;;;5093174;28;19919;-74
2021/03/06 04:42:56;;;;;;;;;;;-4.00;99.90;;;;;;5094503;28;19908;-74
2021/03/06 04:45:21;;;;;;;;;;;-4.10;99.90;;;;;;5094287;28;20410;-73
2021/03/06 04:47:47;;;;;;;;;;;-4.10;99.90;;;;;;5092875;28;19941;-73
2021/03/06 04:50:13;;;;;;;;;;;-4.10;99.90;;;;;;5094248;28;19963;-73
2021/03/06 04:52:38;;;;;;;;;;;-4.10;99.90;;;;;;5093760;28;20311;-73
2021/03/06 04:55:04;;;;;;;;;;;-4.20;99.90;;;;;;5092700;28;19918;-73
2021/03/06 04:57:30;;;;;;;;;;;-4.20;99.90;;;;;;5092552;28;19908;-73
2021/03/06 04:59:55;;;;;;;;;;;-4.20;99.90;;;;;;5094065;28;20319;-73
2021/03/06 05:02:21;;;;;;;;;;;-4.20;99.90;;;;;;5093921;28;19908;-73
2021/03/06 05:04:46;;;;;;;;;;;-4.30;99.90;;;;;;5094037;28;19915;-73
2021/03/06 05:07:12;;;;;;;;;;;-4.30;99.90;;;;;;5093525;28;19913;-73
2021/03/06 05:09:37;;;;;;;;;;;-4.30;99.90;;;;;;5093861;28;19964;-73
2021/03/06 05:12:03;;;;;;;;;;;-4.40;99.90;;;;;;5093869;28;19933;-73
2021/03/06 05:14:29;;;;;;;;;;;-4.40;99.90;;;;;;5093684;28;19919;-73
2021/03/06 05:16:54;;;;;;;;;;;-4.40;99.90;;;;;;5093450;28;19912;-73
2021/03/06 05:19:20;;;;;;;;;;;-4.40;99.90;;;;;;5092475;28;20406;-73
2021/03/06 05:21:45;;;;;;;;;;;-4.40;99.90;;;;;;5093249;28;20388;-73
2021/03/06 05:24:11;;;;;;;;;;;-4.50;99.90;;;;;;5109808;28;19908;-74
2021/03/06 05:26:36;;;;;;;;;;;-4.50;99.90;;;;;;5113581;28;19970;-73
2021/03/06 05:29:02;;;;;;;;;;;-4.40;99.90;;;;;;5114040;28;19954;-73
2021/03/06 05:31:27;;;;;;;;;;;-4.40;99.90;;;;;;5113741;28;20360;-73
2021/03/06 05:33:53;;;;;;;;;;;-4.40;99.90;;;;;;5113903;28;19914;-73
2021/03/06 05:36:18;;;;;;;;;;;-4.40;99.90;;;;;;5113370;28;19915;-73
2021/03/06 05:38:44;;;;;;;;;;;-4.40;99.90;;;;;;5113947;28;19908;-71
2021/03/06 05:41:09;;;;;;;;;;;-4.50;99.90;;;;;;5113953;28;19919;-72
2021/03/06 05:43:35;;;;;;;;;;;-4.50;99.90;;;;;;5095078;28;20422;-76
2021/03/06 05:46:00;;;;;;;;;;;-4.60;99.90;;;;;;5090847;28;19912;-71
2021/03/06 05:48:26;;;;;;;;;;;-4.60;99.90;;;;;;5093202;28;19908;-71
2021/03/06 05:50:52;;;;;;;;;;;-4.60;99.90;;;;;;5092888;28;19908;-74
2021/03/06 05:53:19;;;;;;;;;;;-4.60;99.90;;;;;;5092638;28;20357;-72
2021/03/06 05:55:48;;;;;;;;;;;-4.50;99.90;;;;;;5091466;28;20015;-71
2021/03/06 05:58:14;;;;;;;;;;;-4.50;99.90;;;;;;5092692;28;19915;-72
2021/03/06 06:00:43;;;;;;;;;;;-4.60;99.90;;;;;;5091522;28;19942;-74
2021/03/06 06:03:09;;;;;;;;;;;-4.50;99.90;;;;;;5091691;28;19955;-71
2021/03/06 06:05:35;;;;;;;;;;;-4.50;99.90;;;;;;5092436;28;19934;-72
2021/03/06 06:08:01;;;;;;;;;;;-4.60;99.90;;;;;;5092578;28;19958;-72
2021/03/06 06:10:27;;;;;;;;;;;-4.60;99.90;;;;;;5092689;28;19953;-72
2021/03/06 06:12:53;;;;;;;;;;;-4.60;99.90;;;;;;5087093;28;19965;-72
2021/03/06 06:15:19;;;;;;;;;;;-4.60;99.90;;;;;;5085676;28;19908;-72
2021/03/06 06:17:45;;;;;;;;;;;-4.60;99.90;;;;;;5092361;28;19952;-71
2021/03/06 06:20:13;;;;;;;;;;;-4.60;99.90;;;;;;5092677;28;19958;-71
2021/03/06 06:22:38;;;;;;;;;;;-4.70;99.90;;;;;;5092379;28;19950;-72
2021/03/06 06:25:04;;;;;;;;;;;-4.70;99.90;;;;;;5092731;28;19955;-73
2021/03/06 06:27:31;;;;;;;;;;;-4.70;99.90;;;;;;5092177;28;19919;-71
2021/03/06 06:29:57;;;;;;;;;;;-4.60;99.90;;;;;;5092525;28;20367;-72
2021/03/06 06:32:24;;;;;;;;;;;-4.60;99.90;;;;;;5091354;28;19931;-71
2021/03/06 06:35:00;;;;;;;;;;;-4.60;99.90;;;;;;5090920;28;20073;-72
2021/03/06 06:37:25;;;;;;;;;;;-4.50;99.90;;;;;;5092337;28;19912;-71
2021/03/06 06:39:51;;;;;;;;;;;-4.50;99.90;;;;;;5092571;28;19930;-71
2021/03/06 06:42:17;;;;;;;;;;;-4.50;99.90;;;;;;5092191;28;19908;-72
2021/03/06 06:45:03;;;;;;;;;;;-4.40;99.90;;;;;;5092442;28;19908;-72
2021/03/06 06:47:36;;;;;;;;;;;-4.30;99.90;;;;;;5092035;28;19919;-74
2021/03/06 06:50:03;;;;;;;;;;;-4.30;99.90;;;;;;5092753;28;19908;-71
2021/03/06 06:52:34;;;;;;;;;;;-4.20;99.90;;;;;;5090423;28;19915;-71
2021/03/06 06:55:01;;;;;;;;;;;-4.20;99.90;;;;;;5092382;28;19908;-72
2021/03/06 06:57:27;;;;;;;;;;;-4.20;99.90;;;;;;5089765;28;19908;-76
2021/03/06 06:59:54;;;;;;;;;;;-4.10;99.90;;;;;;5090617;28;20399;-71
2021/03/06 07:02:19;;;;;;;;;;;-4.10;99.90;;;;;;5092080;28;19912;-72
2021/03/06 07:04:48;;;;;;;;;;;-4.00;99.90;;;;;;5092070;28;20016;-72
2021/03/06 07:07:15;;;;;;;;;;;-4.00;99.90;;;;;;5091617;28;19912;-72
2021/03/06 07:09:59;;;;;;;;;;;-3.80;99.90;;;;;;5090238;28;19908;-71
2021/03/06 07:12:25;;;;;;;;;;;-3.80;99.90;;;;;;5080573;28;19954;-71
2021/03/06 07:14:51;;;;;;;;;;;-3.70;99.90;;;;;;5090580;28;20134;-72
2021/03/06 07:17:16;;;;;;;;;;;-3.60;99.90;;;;;;5091642;28;20435;-71
2021/03/06 07:19:42;;;;;;;;;;;-3.50;99.90;;;;;;5091791;28;19908;-71
2021/03/06 07:22:08;;;;;;;;;;;-3.40;99.90;;;;;;5090390;28;19908;-72
2021/03/06 07:24:33;;;;;;;;;;;-3.30;99.90;;;;;;5091657;28;19908;-73
2021/03/06 07:26:59;;;;;;;;;;;-3.20;99.90;;;;;;5090090;28;19919;-72
2021/03/06 07:29:25;;;;;;;;;;;-3.00;99.90;;;;;;5090871;28;20573;-72
2021/03/06 07:31:51;;;;;;;;;;;-2.90;99.90;;;;;;5087859;28;20323;-71
2021/03/06 07:34:21;;;;;;;;;;;-2.90;99.90;;;;;;5090539;28;20369;-71
2021/03/06 07:36:47;;;;;;;;;;;-2.80;99.90;;;;;;5089231;28;20388;-72
2021/03/06 07:39:13;;;;;;;;;;;-2.70;99.90;;;;;;5090711;28;19916;-74
2021/03/06 07:41:40;;;;;;;;;;;-2.60;99.90;;;;;;5087729;28;19946;-75
2021/03/06 07:44:11;;;;;;;;;;;-2.40;99.90;;;;;;5074732;28;19948;-72
2021/03/06 07:46:39;;;;;;;;;;;-2.30;99.90;;;;;;5086943;28;19919;-72
2021/03/06 07:49:11;;;;;;;;;;;-2.20;99.90;;;;;;5090465;28;19911;-72
2021/03/06 07:51:38;;;;;;;;;;;-2.10;99.90;;;;;;5089215;28;19915;-72
2021/03/06 07:54:04;;;;;;;;;;;-1.90;99.90;;;;;;5090979;28;19909;-75
2021/03/06 07:56:30;;;;;;;;;;;-1.80;99.90;;;;;;5091062;28;19915;-72
2021/03/06 07:58:55;;;;;;;;;;;-1.70;99.90;;;;;;5108465;28;19946;-72
2021/03/06 08:01:28;;;;;;;;;;;-1.60;99.90;;;;;;5111655;28;19908;-72
2021/03/06 08:03:53;;;;;;;;;;;-1.40;99.90;;;;;;5111784;28;19994;-72
2021/03/06 08:06:20;;;;;;;;;;;-1.30;99.90;;;;;;5109928;28;20003;-72
2021/03/06 08:08:45;;;;;;;;;;;-1.20;99.90;;;;;;5112991;28;19916;-72
2021/03/06 08:11:15;;;;;;;;;;;-1.00;99.90;;;;;;5115694;28;19908;-72
2021/03/06 08:13:52;;;;;;;;;;;-0.90;99.90;;;;;;5095650;28;19915;-75
2021/03/06 08:16:23;;;;;;;;;;;-0.80;99.90;;;;;;5094619;28;19958;-72
2021/03/06 08:18:49;;;;;;;;;;;-0.60;99.90;;;;;;5094026;28;19923;-76
2021/03/06 08:21:34;;;;;;;;;;;-0.30;99.90;;;;;;5094629;28;19912;-73
2021/03/06 08:24:21;;;;;;;;;;;0.30;99.90;;;;;;5095219;28;19908;-73
2021/03/06 08:26:54;;;;;;;;;;;1.10;99.90;;;;;;5090966;28;19913;-73
2021/03/06 08:29:20;;;;;;;;;;;2.00;99.90;;;;;;5095445;28;19954;-74
2021/03/06 08:31:46;;;;;;;;;;;3.00;99.90;;;;;;5095180;28;20319;-74
2021/03/06 08:34:28;;;;;;;;;;;3.80;99.90;;;;;;5095143;28;19995;-75
2021/03/06 08:37:12;;;;;;;;;;;4.60;99.90;;;;;;5094874;28;20273;-76
2021/03/06 08:39:38;;;;;;;;;;;5.30;99.60;;;;;;5095085;28;19908;-78
2021/03/06 08:42:03;;;;;;;;;;;5.90;98.40;;;;;;5094783;28;19909;-76
2021/03/06 08:44:29;;;;;;;;;;;6.20;96.70;;;;;;5089330;28;20455;-74
2021/03/06 08:46:54;;;;;;;;;;;6.60;96.70;;;;;;5089544;28;19938;-74
2021/03/06 08:49:20;;;;;;;;;;;7.10;96.20;;;;;;5086729;28;20020;-75
2021/03/06 08:51:45;;;;;;;;;;;7.60;94.40;;;;;;5098855;28;19912;-77
2021/03/06 08:54:12;;;;;;;;;;;7.80;93.70;;;;;;5109658;28;19920;-74
2021/03/06 08:56:38;;;;;;;;;;;8.00;93.00;;;;;;5113216;28;19955;-74
2021/03/06 08:59:07;;;;;;;;;;;8.10;92.60;;;;;;5113650;28;19907;-79
2021/03/06 09:01:33;;;;;;;;;;;8.20;91.30;;;;;;5114743;28;19946;-74
2021/03/06 09:03:59;;;;;;;;;;;7.40;90.80;;;;;;5114802;28;19911;-74
2021/03/06 09:06:33;;;;;;;;;;;7.20;92.00;;;;;;5114702;28;19916;-74
2021/03/06 09:08:59;;;;;;;;;;;7.40;92.20;;;;;;5114966;28;19952;-74
2021/03/06 09:11:25;;;;;;;;;;;7.10;91.00;;;;;;5114503;28;19994;-75
2021/03/06 09:13:50;;;;;;;;;;;7.40;92.10;;;;;;5098589;28;20010;-75
2021/03/06 09:16:16;;;;;;;;;;;7.90;91.70;;;;;;5074810;28;19919;-78
2021/03/06 09:18:42;;;;;;;;;;;8.10;91.20;;;;;;5093943;28;19915;-75
2021/03/06 09:21:11;;;;;;;;;;;8.50;89.90;;;;;;5092827;28;20034;-75
2021/03/06 09:23:40;;;;;;;;;;;8.60;90.20;;;;;;5093693;28;20010;-77
2021/03/06 09:26:16;;;;;;;;;;;9.00;89.50;;;;;;5092212;28;20003;-75
2021/03/06 09:28:43;;;;;;;;;;;9.30;88.20;;;;;;5092658;28;20307;-75
2021/03/06 09:31:13;;;;;;;;;;;8.70;85.00;;;;;;5093835;28;19943;-74
2021/03/06 09:33:39;;;;;;;;;;;8.50;86.60;;;;;;5094171;28;19908;-78
2021/03/06 09:36:08;;;;;;;;;;;8.90;88.30;;;;;;5093236;28;19916;-75
2021/03/06 09:38:41;;;;;;;;;;;9.10;86.70;;;;;;5092462;28;20002;-75
2021/03/06 09:41:06;;;;;;;;;;;8.90;83.70;;;;;;5093557;28;19934;-80
2021/03/06 09:43:33;;;;;;;;;;;8.30;85.80;;;;;;5084997;28;19916;-75
2021/03/06 09:45:59;;;;;;;;;;;8.10;84.40;;;;;;5092865;28;19912;-79
2021/03/06 09:48:26;;;;;;;;;;;7.90;85.90;;;;;;5093206;28;19958;-81
2021/03/06 09:50:53;;;;;;;;;;;8.10;87.20;;;;;;5092857;28;19999;-75
2021/03/06 09:53:20;;;;;;;;;;;8.40;86.20;;;;;;5093162;28;19915;-78
2021/03/06 09:55:46;;;;;;;;;;;9.00;85.60;;;;;;5091546;28;19912;-76
2021/03/06 09:58:19;;;;;;;;;;;9.10;82.70;;;;;;5093326;28;19923;-75
2021/03/06 10:00:44;;;;;;;;;;;9.30;82.60;;;;;;5093259;28;19915;-75
2021/03/06 10:03:10;;;;;;;;;;;9.00;82.10;;;;;;5093189;28;19912;-74
2021/03/06 10:05:36;;;;;;;;;;;9.30;81.70;;;;;;5092831;28;19912;-77
2021/03/06 10:08:01;;;;;;;;;;;9.40;81.00;;;;;;5093023;28;19908;-79
2021/03/06 10:10:27;;;;;;;;;;;9.50;80.00;;;;;;5091550;28;19908;-75
2021/03/06 10:12:54;;;;;;;;;;;9.70;77.20;;;;;;5088470;28;19928;-75
2021/03/06 10:15:20;;;;;;;;;;;9.80;78.20;;;;;;5091433;28;19916;-75
2021/03/06 10:17:46;;;;;;;;;;;9.90;76.70;;;;;;5092784;28;20311;-77
2021/03/06 10:20:12;;;;;;;;;;;9.80;78.60;;;;;;5092902;28;19934;-75
2021/03/06 10:22:45;;;;;;;;;;;10.30;77.40;;;;;;5092356;28;19908;-80
2021/03/06 10:25:11;;;;;;;;;;;10.90;74.70;;;;;;5092784;28;20003;-75
2021/03/06 10:27:36;;;;;;;;;;;10.70;73.50;;;;;;5092448;28;19957;-75
2021/03/06 10:30:11;;;;;;;;;;;10.40;71.90;;;;;;5092542;28;19908;-77
2021/03/06 10:32:37;;;;;;;;;;;10.40;71.80;;;;;;5091202;28;19916;-75
2021/03/06 10:35:03;;;;;;;;;;;10.20;71.30;;;;;;5092572;28;19959;-75
2021/03/06 10:37:28;;;;;;;;;;;10.10;70.00;;;;;;5092079;28;20343;-75
2021/03/06 10:39:54;;;;;;;;;;;9.70;73.70;;;;;;5092297;28;19908;-80
2021/03/06 10:42:19;;;;;;;;;;;9.80;71.60;;;;;;5092766;28;19970;-75
2021/03/06 10:44:45;;;;;;;;;;;9.90;71.10;;;;;;5092316;28;20011;-75
2021/03/06 10:47:11;;;;;;;;;;;9.90;71.70;;;;;;5091807;28;19947;-75
2021/03/06 10:49:37;;;;;;;;;;;9.70;72.00;;;;;;5092321;28;19908;-78
2021/03/06 10:52:05;;;;;;;;;;;9.50;71.90;;;;;;5107681;28;19908;-75
2021/03/06 10:54:45;;;;;;;;;;;9.70;73.10;;;;;;5112266;28;19969;-78
2021/03/06 10:57:10;;;;;;;;;;;9.80;74.20;;;;;;5112701;28;20277;-75
2021/03/06 10:59:36;;;;;;;;;;;9.70;70.60;;;;;;5112371;28;19908;-75
2021/03/06 11:02:02;;;;;;;;;;;9.30;71.40;;;;;;5112376;28;20383;-75
2021/03/06 11:04:29;;;;;;;;;;;9.10;70.80;;;;;;5112361;28;20405;-75
2021/03/06 11:06:55;;;;;;;;;;;8.90;71.50;;;;;;5111905;28;20191;-74
2021/03/06 11:09:23;;;;;;;;;;;9.00;72.10;;;;;;5112246;28;19926;-74
2021/03/06 11:11:49;;;;;;;;;;;8.90;70.60;;;;;;5112355;28;20279;-75
2021/03/06 11:14:24;;;;;;;;;;;9.10;71.90;;;;;;5111971;28;20014;-74
2021/03/06 11:16:50;;;;;;;;;;;9.20;70.30;;;;;;5111771;28;20376;-75
2021/03/06 11:19:15;;;;;;;;;;;9.10;70.10;;;;;;5112318;28;19915;-75
2021/03/06 11:21:40;;;;;;;;;;;8.90;71.80;;;;;;5103130;28;19908;-74
2021/03/06 11:24:07;;;;;;;;;;;9.00;72.80;;;;;;5111926;28;19908;-75
2021/03/06 11:26:34;;;;;;;;;;;9.00;72.20;;;;;;5111400;28;20010;-78
2021/03/06 11:28:59;;;;;;;;;;;9.30;72.10;;;;;;5111972;28;19907;-74
2021/03/06 11:31:26;;;;;;;;;;;9.70;70.80;;;;;;5111955;28;19964;-78
2021/03/06 11:33:51;;;;;;;;;;;9.80;69.50;;;;;;5111972;28;20365;-77
2021/03/06 11:36:17;;;;;;;;;;;9.90;69.10;;;;;;5111569;28;19922;-75
2021/03/06 11:38:42;;;;;;;;;;;9.90;71.50;;;;;;5111780;28;19908;-75
2021/03/06 11:41:08;;;;;;;;;;;10.00;67.70;;;;;;5110252;28;19908;-75
2021/03/06 11:43:33;;;;;;;;;;;10.20;68.40;;;;;;5094119;28;20580;-74
2021/03/06 11:45:59;;;;;;;;;;;9.90;67.60;;;;;;5090822;28;19912;-75
2021/03/06 11:48:24;;;;;;;;;;;9.80;67.90;;;;;;5089915;28;19909;-75
2021/03/06 11:50:50;;;;;;;;;;;9.50;66.30;;;;;;5091256;28;20418;-75
2021/03/06 11:53:16;;;;;;;;;;;9.60;67.70;;;;;;5091051;28;19914;-80
2021/03/06 11:55:41;;;;;;;;;;;9.70;67.90;;;;;;5089301;28;20373;-74
2021/03/06 11:58:07;;;;;;;;;;;9.60;66.80;;;;;;5090962;28;20448;-74
2021/03/06 12:00:34;;;;;;;;;;;9.30;66.10;;;;;;5089822;28;19938;-74
2021/03/06 12:03:00;;;;;;;;;;;9.00;67.30;;;;;;5091078;28;19912;-78
2021/03/06 12:05:26;;;;;;;;;;;8.60;65.80;;;;;;5091423;28;19908;-75
2021/03/06 12:07:52;;;;;;;;;;;8.30;67.60;;;;;;5090648;28;19912;-74
2021/03/06 12:10:22;;;;;;;;;;;8.00;67.50;;;;;;5089741;28;19908;-75
2021/03/06 12:12:48;;;;;;;;;;;7.50;68.50;;;;;;5088232;28;19915;-75
2021/03/06 12:15:15;;;;;;;;;;;7.10;68.50;;;;;;5077863;28;19912;-79
2021/03/06 12:17:40;;;;;;;;;;;6.70;67.40;;;;;;5090747;28;20357;-81
2021/03/06 12:20:07;;;;;;;;;;;6.30;69.30;;;;;;5078711;28;19953;-74
2021/03/06 12:22:33;;;;;;;;;;;6.30;71.00;;;;;;5108366;28;19992;-74
2021/03/06 12:24:58;;;;;;;;;;;6.10;68.40;;;;;;5093829;28;19974;-76
2021/03/06 12:27:24;;;;;;;;;;;6.10;69.40;;;;;;5088702;28;19916;-74
2021/03/06 12:29:49;;;;;;;;;;;6.00;69.20;;;;;;5084838;28;19915;-76
2021/03/06 12:32:15;;;;;;;;;;;5.90;70.30;;;;;;5090608;28;20007;-75
2021/03/06 12:34:40;;;;;;;;;;;5.70;69.40;;;;;;5090515;28;20360;-74
2021/03/06 12:37:06;;;;;;;;;;;5.70;70.00;;;;;;5090397;28;20057;-74
2021/03/06 12:39:31;;;;;;;;;;;5.70;70.00;;;;;;5090631;28;20015;-74
2021/03/06 12:41:57;;;;;;;;;;;5.70;69.00;;;;;;5089340;28;19908;-78
2021/03/06 12:44:22;;;;;;;;;;;5.60;69.00;;;;;;5090814;28;19908;-74
2021/03/06 12:46:48;;;;;;;;;;;5.60;70.10;;;;;;5090463;28;19912;-74
2021/03/06 12:49:14;;;;;;;;;;;5.60;69.80;;;;;;5090921;28;20334;-74
2021/03/06 12:51:39;;;;;;;;;;;5.60;67.50;;;;;;5087604;28;20353;-75
2021/03/06 12:54:05;;;;;;;;;;;5.60;68.60;;;;;;5073154;28;19938;-78
2021/03/06 12:56:31;;;;;;;;;;;5.60;68.10;;;;;;5090399;28;19999;-74
2021/03/06 12:58:57;;;;;;;;;;;5.60;66.60;;;;;;5092284;28;19919;-74
2021/03/06 13:01:22;;;;;;;;;;;5.50;68.00;;;;;;5091503;28;20330;-74
2021/03/06 13:03:48;;;;;;;;;;;5.50;67.00;;;;;;5090892;28;20007;-74
2021/03/06 13:06:13;;;;;;;;;;;5.50;67.00;;;;;;5093802;28;19919;-77
2021/03/06 13:08:38;;;;;;;;;;;5.40;65.50;;;;;;5093182;28;20045;-74
2021/03/06 13:11:04;;;;;;;;;;;5.40;65.70;;;;;;5094098;28;19915;-74
2021/03/06 13:13:29;;;;;;;;;;;5.40;64.30;;;;;;5094235;28;19938;-77
2021/03/06 13:15:55;;;;;;;;;;;5.50;66.80;;;;;;5092500;28;19912;-74
2021/03/06 13:18:20;;;;;;;;;;;5.50;66.00;;;;;;5094050;28;19969;-74
2021/03/06 13:20:46;;;;;;;;;;;5.40;64.30;;;;;;5092167;28;19908;-74
2021/03/06 13:23:12;;;;;;;;;;;5.40;64.30;;;;;;5093929;28;19908;-78
2021/03/06 13:25:40;;;;;;;;;;;5.50;64.60;;;;;;5093628;28;20388;-74
2021/03/06 13:28:06;;;;;;;;;;;5.50;64.30;;;;;;5093738;28;20284;-76
2021/03/06 13:30:32;;;;;;;;;;;5.50;64.10;;;;;;5093639;28;19939;-77
2021/03/06 13:32:57;;;;;;;;;;;5.50;62.20;;;;;;5093821;28;19962;-74
2021/03/06 13:35:23;;;;;;;;;;;5.50;61.80;;;;;;5092281;28;20288;-74
2021/03/06 13:37:49;;;;;;;;;;;5.50;62.20;;;;;;5091908;28;19915;-75
2021/03/06 13:40:15;;;;;;;;;;;5.50;61.20;;;;;;5093496;28;19940;-74
2021/03/06 13:42:41;;;;;;;;;;;5.50;60.80;;;;;;5091174;28;19922;-77
2021/03/06 13:45:07;;;;;;;;;;;5.60;59.90;;;;;;5083201;28;19908;-74
2021/03/06 13:47:33;;;;;;;;;;;5.60;59.80;;;;;;5091965;28;19935;-74
2021/03/06 13:49:58;;;;;;;;;;;5.60;61.40;;;;;;5093266;28;19908;-79
2021/03/06 13:52:24;;;;;;;;;;;5.60;63.70;;;;;;5092546;28;19912;-74
2021/03/06 13:54:49;;;;;;;;;;;5.70;62.90;;;;;;5093597;28;20008;-74
2021/03/06 13:57:15;;;;;;;;;;;5.70;63.30;;;;;;5092921;28;19919;-76
2021/03/06 13:59:40;;;;;;;;;;;5.80;62.20;;;;;;5093302;28;19915;-74
2021/03/06 14:02:06;;;;;;;;;;;5.90;60.20;;;;;;5093230;28;20280;-74
2021/03/06 14:04:31;;;;;;;;;;;5.90;62.90;;;;;;5093131;28;20389;-74
2021/03/06 14:06:57;;;;;;;;;;;5.90;60.90;;;;;;5092142;28;19938;-75
2021/03/06 14:09:22;;;;;;;;;;;5.90;59.90;;;;;;5092902;28;19919;-74
2021/03/06 14:11:48;;;;;;;;;;;5.90;60.00;;;;;;5091711;28;19914;-74
2021/03/06 14:14:13;;;;;;;;;;;5.90;59.20;;;;;;5085488;28;19912;-74
2021/03/06 14:16:39;;;;;;;;;;;5.90;59.60;;;;;;5084013;28;20010;-79
2021/03/06 14:19:04;;;;;;;;;;;5.90;59.50;;;;;;5092627;28;20534;-74